MMZ275 LEMD-LPPT
Flight info
| Callsign | MMZ275 |
|---|---|
| Flight time | 1h 1m |
| Altitude | 33000 |
| Route | CCS DCT ELVAR DCT UPULO |
| Aircraft | B772/H-SDE2E3FGHIJ5LORVWXY/LB1D1 |
Departure
| Time | 2026-05-07 16:49 |
|---|---|
| Airport | Adolfo Suárez Madrid–Barajas Airport (LEMD) |
Arrival
| Time | 2026-05-07 17:51 |
|---|---|
| Airport | Lisbon Humberto Delgado Airport (LPPT) |
| Time | Latitude | Longitude | Altitude | Speed | Heading |
|---|---|---|---|---|---|
| 2026-05-07 16:16 | 40.49034 | -3.56355 | 1974 ft | 0 kts | 270° |
| 2026-05-07 16:41 | 40.49034 | -3.56370 | 1969 ft | 9 kts | 270° |
| 2026-05-07 16:41 | 40.49011 | -3.56438 | 1977 ft | 9 kts | 211° |
| 2026-05-07 16:41 | 40.48951 | -3.56447 | 1975 ft | 9 kts | 180° |
| 2026-05-07 16:41 | 40.48875 | -3.56459 | 1977 ft | 11 kts | 215° |
| 2026-05-07 16:42 | 40.48864 | -3.56563 | 1975 ft | 15 kts | 269° |
| 2026-05-07 16:42 | 40.48860 | -3.56723 | 1979 ft | 18 kts | 269° |
| 2026-05-07 16:42 | 40.48862 | -3.56854 | 1981 ft | 9 kts | 270° |
| 2026-05-07 16:42 | 40.48862 | -3.56865 | 1981 ft | 1 kts | 270° |
| 2026-05-07 16:43 | 40.48861 | -3.56967 | 1983 ft | 15 kts | 269° |
| 2026-05-07 16:43 | 40.48861 | -3.57103 | 1985 ft | 15 kts | 270° |
| 2026-05-07 16:43 | 40.48822 | -3.57218 | 1988 ft | 15 kts | 199° |
| 2026-05-07 16:43 | 40.48719 | -3.57237 | 1992 ft | 15 kts | 205° |
| 2026-05-07 16:44 | 40.48645 | -3.57334 | 1998 ft | 15 kts | 233° |
| 2026-05-07 16:44 | 40.48588 | -3.57431 | 1999 ft | 11 kts | 232° |
| 2026-05-07 16:44 | 40.48579 | -3.57448 | 1999 ft | 0 kts | 232° |
| 2026-05-07 16:46 | 40.48554 | -3.57490 | 1999 ft | 17 kts | 232° |
| 2026-05-07 16:46 | 40.48444 | -3.57541 | 2001 ft | 16 kts | 168° |
| 2026-05-07 16:46 | 40.48393 | -3.57502 | 1999 ft | 0 kts | 144° |
| 2026-05-07 16:48 | 40.48388 | -3.57496 | 2000 ft | 7 kts | 144° |
| 2026-05-07 16:48 | 40.48226 | -3.57330 | 2004 ft | 63 kts | 141° |
| 2026-05-07 16:48 | 40.47650 | -3.56744 | 1999 ft | 143 kts | 141° |
| 2026-05-07 16:49 | 40.46744 | -3.55837 | 2470 ft | 165 kts | 141° |
| 2026-05-07 16:49 | 40.45821 | -3.54915 | 3327 ft | 173 kts | 140° |
| 2026-05-07 16:49 | 40.44896 | -3.53991 | 4383 ft | 163 kts | 143° |
| 2026-05-07 16:49 | 40.43975 | -3.53074 | 5337 ft | 167 kts | 144° |
| 2026-05-07 16:50 | 40.43037 | -3.52136 | 6154 ft | 173 kts | 144° |
| 2026-05-07 16:50 | 40.42078 | -3.51172 | 6819 ft | 176 kts | 144° |
| 2026-05-07 16:50 | 40.41085 | -3.50172 | 7388 ft | 188 kts | 144° |
| 2026-05-07 16:50 | 40.39968 | -3.49045 | 7588 ft | 217 kts | 144° |
| 2026-05-07 16:51 | 40.38709 | -3.47770 | 7904 ft | 235 kts | 144° |
| 2026-05-07 16:51 | 40.37392 | -3.46430 | 8487 ft | 243 kts | 144° |
| 2026-05-07 16:51 | 40.36040 | -3.45053 | 9151 ft | 249 kts | 144° |
| 2026-05-07 16:51 | 40.34666 | -3.43652 | 9868 ft | 252 kts | 144° |
| 2026-05-07 16:52 | 40.33273 | -3.42234 | 10507 ft | 256 kts | 144° |
| 2026-05-07 16:52 | 40.31877 | -3.40815 | 11212 ft | 258 kts | 145° |
| 2026-05-07 16:52 | 40.30454 | -3.39368 | 12029 ft | 260 kts | 144° |
| 2026-05-07 16:52 | 40.28919 | -3.38162 | 12809 ft | 258 kts | 167° |
| 2026-05-07 16:53 | 40.27112 | -3.38100 | 13362 ft | 270 kts | 197° |
| 2026-05-07 16:53 | 40.25350 | -3.39052 | 13873 ft | 279 kts | 205° |
| 2026-05-07 16:53 | 40.23547 | -3.40126 | 14583 ft | 286 kts | 205° |
| 2026-05-07 16:53 | 40.21726 | -3.41199 | 15433 ft | 287 kts | 206° |
| 2026-05-07 16:54 | 40.20094 | -3.42685 | 16082 ft | 291 kts | 229° |
| 2026-05-07 16:54 | 40.19046 | -3.44987 | 16441 ft | 311 kts | 250° |
| 2026-05-07 16:54 | 40.18411 | -3.47799 | 16609 ft | 335 kts | 253° |
| 2026-05-07 16:54 | 40.17778 | -3.50855 | 16809 ft | 360 kts | 254° |
| 2026-05-07 16:55 | 40.17122 | -3.54088 | 17314 ft | 374 kts | 254° |
| 2026-05-07 16:55 | 40.16448 | -3.57407 | 18016 ft | 381 kts | 254° |
| 2026-05-07 16:55 | 40.15759 | -3.60781 | 18741 ft | 385 kts | 254° |
| 2026-05-07 16:55 | 40.15058 | -3.64179 | 19494 ft | 388 kts | 255° |
| 2026-05-07 16:56 | 40.14347 | -3.67599 | 20214 ft | 391 kts | 255° |
| 2026-05-07 16:56 | 40.13627 | -3.71045 | 20889 ft | 395 kts | 255° |
| 2026-05-07 16:56 | 40.12162 | -3.78000 | 22056 ft | 405 kts | 255° |
| 2026-05-07 16:57 | 40.11406 | -3.81576 | 22318 ft | 407 kts | 255° |
| 2026-05-07 16:57 | 40.10647 | -3.85150 | 22913 ft | 409 kts | 256° |
| 2026-05-07 16:57 | 40.09885 | -3.88735 | 23660 ft | 410 kts | 256° |
| 2026-05-07 16:57 | 40.09120 | -3.92325 | 24358 ft | 408 kts | 257° |
| 2026-05-07 16:58 | 40.08367 | -3.95854 | 25045 ft | 408 kts | 257° |
| 2026-05-07 16:58 | 40.07598 | -3.99452 | 25707 ft | 408 kts | 257° |
| 2026-05-07 16:58 | 40.06832 | -4.03034 | 26308 ft | 410 kts | 258° |
| 2026-05-07 16:58 | 40.06072 | -4.06586 | 26896 ft | 411 kts | 258° |
| 2026-05-07 16:59 | 40.05296 | -4.10203 | 27521 ft | 412 kts | 258° |
| 2026-05-07 16:59 | 40.04518 | -4.13819 | 28142 ft | 413 kts | 259° |
| 2026-05-07 16:59 | 40.03748 | -4.17396 | 28694 ft | 415 kts | 259° |
| 2026-05-07 16:59 | 40.02963 | -4.21035 | 29389 ft | 414 kts | 259° |
| 2026-05-07 17:00 | 40.02188 | -4.24613 | 30263 ft | 407 kts | 260° |
| 2026-05-07 17:00 | 40.01423 | -4.28133 | 31127 ft | 399 kts | 260° |
| 2026-05-07 17:00 | 40.00669 | -4.31594 | 31904 ft | 394 kts | 260° |
| 2026-05-07 17:00 | 39.99933 | -4.34978 | 32599 ft | 391 kts | 260° |
| 2026-05-07 17:01 | 39.99191 | -4.38397 | 32895 ft | 392 kts | 260° |
| 2026-05-07 17:01 | 39.98449 | -4.41809 | 32879 ft | 390 kts | 260° |
| 2026-05-07 17:01 | 39.96968 | -4.48605 | 32878 ft | 390 kts | 260° |
| 2026-05-07 17:02 | 39.95486 | -4.55381 | 32876 ft | 390 kts | 260° |
| 2026-05-07 17:02 | 39.93991 | -4.62191 | 32865 ft | 390 kts | 259° |
| 2026-05-07 17:03 | 39.92491 | -4.68989 | 32868 ft | 389 kts | 259° |
| 2026-05-07 17:03 | 39.91000 | -4.75739 | 32859 ft | 389 kts | 259° |
| 2026-05-07 17:04 | 39.89494 | -4.82530 | 32874 ft | 389 kts | 259° |
| 2026-05-07 17:04 | 39.87988 | -4.89297 | 32868 ft | 390 kts | 259° |
| 2026-05-07 17:05 | 39.86478 | -4.96070 | 32841 ft | 390 kts | 259° |
| 2026-05-07 17:05 | 39.84960 | -5.02852 | 32868 ft | 391 kts | 258° |
| 2026-05-07 17:06 | 39.83432 | -5.09661 | 32865 ft | 392 kts | 258° |
| 2026-05-07 17:06 | 39.81903 | -5.16454 | 32862 ft | 393 kts | 258° |
| 2026-05-07 17:07 | 39.80361 | -5.23281 | 32861 ft | 392 kts | 258° |
| 2026-05-07 17:07 | 39.78825 | -5.30058 | 32864 ft | 392 kts | 258° |
| 2026-05-07 17:08 | 39.77277 | -5.36872 | 32845 ft | 393 kts | 258° |
| 2026-05-07 17:08 | 39.75727 | -5.43677 | 32852 ft | 394 kts | 258° |
| 2026-05-07 17:09 | 39.74160 | -5.50535 | 32846 ft | 396 kts | 258° |
| 2026-05-07 17:09 | 39.72588 | -5.57392 | 32849 ft | 396 kts | 258° |
| 2026-05-07 17:10 | 39.71015 | -5.64229 | 32845 ft | 395 kts | 257° |
| 2026-05-07 17:10 | 39.69444 | -5.71036 | 32835 ft | 395 kts | 257° |
| 2026-05-07 17:11 | 39.67864 | -5.77876 | 32836 ft | 395 kts | 257° |
| 2026-05-07 17:11 | 39.66274 | -5.84725 | 32837 ft | 397 kts | 257° |
| 2026-05-07 17:12 | 39.64685 | -5.91551 | 32838 ft | 397 kts | 257° |
| 2026-05-07 17:12 | 39.63079 | -5.98429 | 32832 ft | 396 kts | 256° |
| 2026-05-07 17:13 | 39.61486 | -6.05236 | 32835 ft | 396 kts | 256° |
| 2026-05-07 17:13 | 39.59881 | -6.12074 | 32820 ft | 396 kts | 256° |
| 2026-05-07 17:14 | 39.58273 | -6.18902 | 32830 ft | 396 kts | 256° |
| 2026-05-07 17:14 | 39.56670 | -6.25687 | 32833 ft | 396 kts | 256° |
| 2026-05-07 17:15 | 39.55050 | -6.32529 | 32832 ft | 397 kts | 256° |
| 2026-05-07 17:15 | 39.53423 | -6.39385 | 32823 ft | 397 kts | 256° |
| 2026-05-07 17:16 | 39.51720 | -6.46149 | 32820 ft | 398 kts | 250° |
| 2026-05-07 17:16 | 39.49253 | -6.52589 | 32826 ft | 400 kts | 246° |
| 2026-05-07 17:17 | 39.47088 | -6.57892 | 32827 ft | 400 kts | 246° |
| 2026-05-07 17:17 | 39.44106 | -6.65338 | 32824 ft | 400 kts | 246° |
| 2026-05-07 17:18 | 39.41987 | -6.70712 | 32828 ft | 400 kts | 246° |
| 2026-05-07 17:18 | 39.39484 | -6.77090 | 32826 ft | 400 kts | 246° |
| 2026-05-07 17:19 | 39.36960 | -6.83514 | 32814 ft | 398 kts | 246° |
| 2026-05-07 17:19 | 39.34459 | -6.89870 | 32819 ft | 398 kts | 246° |
| 2026-05-07 17:20 | 39.31944 | -6.96244 | 32829 ft | 398 kts | 246° |
| 2026-05-07 17:20 | 39.29427 | -7.02610 | 32837 ft | 398 kts | 246° |
| 2026-05-07 17:21 | 39.26914 | -7.08951 | 32832 ft | 398 kts | 246° |
| 2026-05-07 17:21 | 39.25649 | -7.12140 | 32674 ft | 400 kts | 246° |
| 2026-05-07 17:21 | 39.24382 | -7.15330 | 32213 ft | 400 kts | 246° |
| 2026-05-07 17:22 | 39.23110 | -7.18528 | 31658 ft | 399 kts | 245° |
| 2026-05-07 17:22 | 39.21846 | -7.21700 | 31185 ft | 395 kts | 245° |
| 2026-05-07 17:22 | 39.20606 | -7.24810 | 30679 ft | 393 kts | 245° |
| 2026-05-07 17:22 | 39.19359 | -7.27937 | 30201 ft | 391 kts | 245° |
| 2026-05-07 17:23 | 39.18109 | -7.31067 | 29681 ft | 390 kts | 245° |
| 2026-05-07 17:23 | 39.16867 | -7.34173 | 29142 ft | 388 kts | 244° |
| 2026-05-07 17:23 | 39.15629 | -7.37269 | 28594 ft | 387 kts | 244° |
| 2026-05-07 17:23 | 39.14407 | -7.40321 | 28065 ft | 385 kts | 244° |
| 2026-05-07 17:24 | 39.13176 | -7.43391 | 27547 ft | 384 kts | 244° |
| 2026-05-07 17:24 | 39.11962 | -7.46416 | 27034 ft | 383 kts | 244° |
| 2026-05-07 17:24 | 39.10733 | -7.49475 | 26517 ft | 382 kts | 244° |
| 2026-05-07 17:24 | 39.09514 | -7.52508 | 26025 ft | 380 kts | 243° |
| 2026-05-07 17:25 | 39.08192 | -7.55469 | 25579 ft | 378 kts | 237° |
| 2026-05-07 17:25 | 39.06685 | -7.58161 | 25343 ft | 370 kts | 236° |
| 2026-05-07 17:25 | 39.05177 | -7.60833 | 25128 ft | 369 kts | 235° |
| 2026-05-07 17:25 | 39.03676 | -7.63509 | 24885 ft | 372 kts | 235° |
| 2026-05-07 17:26 | 39.02154 | -7.66230 | 24659 ft | 374 kts | 235° |
| 2026-05-07 17:26 | 39.00636 | -7.68948 | 24425 ft | 373 kts | 235° |
| 2026-05-07 17:26 | 38.99122 | -7.71659 | 24192 ft | 372 kts | 235° |
| 2026-05-07 17:26 | 38.97628 | -7.74333 | 23966 ft | 371 kts | 235° |
| 2026-05-07 17:27 | 38.96126 | -7.77021 | 23732 ft | 370 kts | 235° |
| 2026-05-07 17:27 | 38.94623 | -7.79709 | 23516 ft | 369 kts | 234° |
| 2026-05-07 17:27 | 38.93122 | -7.82392 | 23252 ft | 368 kts | 234° |
| 2026-05-07 17:27 | 38.91629 | -7.85058 | 22969 ft | 367 kts | 234° |
| 2026-05-07 17:28 | 38.90156 | -7.87685 | 22716 ft | 366 kts | 234° |
| 2026-05-07 17:28 | 38.88664 | -7.90346 | 22466 ft | 365 kts | 234° |
| 2026-05-07 17:28 | 38.87181 | -7.92987 | 22189 ft | 364 kts | 234° |
| 2026-05-07 17:28 | 38.85704 | -7.95616 | 21928 ft | 363 kts | 234° |
| 2026-05-07 17:29 | 38.84246 | -7.98208 | 21679 ft | 362 kts | 234° |
| 2026-05-07 17:29 | 38.82776 | -8.00822 | 21410 ft | 361 kts | 234° |
| 2026-05-07 17:29 | 38.81290 | -8.03460 | 21147 ft | 360 kts | 234° |
| 2026-05-07 17:29 | 38.79842 | -8.06028 | 20910 ft | 359 kts | 234° |
| 2026-05-07 17:30 | 38.78379 | -8.08623 | 20655 ft | 358 kts | 234° |
| 2026-05-07 17:30 | 38.76920 | -8.11208 | 20420 ft | 357 kts | 234° |
| 2026-05-07 17:30 | 38.75475 | -8.13765 | 20189 ft | 352 kts | 234° |
| 2026-05-07 17:30 | 38.74046 | -8.16292 | 19894 ft | 349 kts | 234° |
| 2026-05-07 17:31 | 38.72626 | -8.18802 | 19474 ft | 347 kts | 234° |
| 2026-05-07 17:31 | 38.71210 | -8.21302 | 19041 ft | 344 kts | 234° |
| 2026-05-07 17:31 | 38.69805 | -8.23782 | 18622 ft | 342 kts | 234° |
| 2026-05-07 17:31 | 38.68425 | -8.26214 | 18186 ft | 341 kts | 234° |
| 2026-05-07 17:32 | 38.67047 | -8.28642 | 17890 ft | 323 kts | 234° |
| 2026-05-07 17:32 | 38.65781 | -8.30873 | 17505 ft | 297 kts | 233° |
| 2026-05-07 17:32 | 38.64606 | -8.32942 | 17086 ft | 279 kts | 233° |
| 2026-05-07 17:32 | 38.63480 | -8.34923 | 16671 ft | 270 kts | 232° |
| 2026-05-07 17:33 | 38.62378 | -8.36859 | 16237 ft | 271 kts | 232° |
| 2026-05-07 17:33 | 38.61277 | -8.38793 | 15984 ft | 265 kts | 232° |
| 2026-05-07 17:33 | 38.60190 | -8.40699 | 15624 ft | 266 kts | 232° |
| 2026-05-07 17:33 | 38.59104 | -8.42604 | 15263 ft | 266 kts | 232° |
| 2026-05-07 17:34 | 38.58022 | -8.44501 | 15009 ft | 263 kts | 232° |
| 2026-05-07 17:34 | 38.56960 | -8.46363 | 14672 ft | 256 kts | 232° |
| 2026-05-07 17:34 | 38.55911 | -8.48202 | 14149 ft | 256 kts | 231° |
| 2026-05-07 17:34 | 38.54862 | -8.50037 | 13650 ft | 257 kts | 231° |
| 2026-05-07 17:35 | 38.53799 | -8.51895 | 13245 ft | 259 kts | 231° |
| 2026-05-07 17:35 | 38.52725 | -8.53769 | 12810 ft | 262 kts | 231° |
| 2026-05-07 17:35 | 38.51656 | -8.55637 | 12436 ft | 263 kts | 231° |
| 2026-05-07 17:35 | 38.50576 | -8.57524 | 12109 ft | 262 kts | 230° |
| 2026-05-07 17:36 | 38.49508 | -8.59388 | 11851 ft | 259 kts | 231° |
| 2026-05-07 17:36 | 38.48452 | -8.61231 | 11586 ft | 256 kts | 230° |
| 2026-05-07 17:36 | 38.47463 | -8.63100 | 11252 ft | 253 kts | 243° |
| 2026-05-07 17:36 | 38.46919 | -8.65234 | 10951 ft | 254 kts | 253° |
| 2026-05-07 17:37 | 38.46528 | -8.67457 | 10495 ft | 260 kts | 255° |
| 2026-05-07 17:37 | 38.46140 | -8.69734 | 10061 ft | 263 kts | 255° |
| 2026-05-07 17:37 | 38.45750 | -8.71977 | 9824 ft | 260 kts | 253° |
| 2026-05-07 17:37 | 38.45344 | -8.74212 | 9539 ft | 258 kts | 253° |
| 2026-05-07 17:38 | 38.44931 | -8.76428 | 9266 ft | 255 kts | 253° |
| 2026-05-07 17:38 | 38.44517 | -8.78609 | 8992 ft | 252 kts | 253° |
| 2026-05-07 17:38 | 38.44101 | -8.80774 | 8737 ft | 249 kts | 253° |
| 2026-05-07 17:38 | 38.43686 | -8.82912 | 8478 ft | 246 kts | 252° |
| 2026-05-07 17:39 | 38.43273 | -8.85025 | 8216 ft | 244 kts | 253° |
| 2026-05-07 17:39 | 38.42863 | -8.87119 | 7962 ft | 242 kts | 252° |
| 2026-05-07 17:39 | 38.42455 | -8.89198 | 7710 ft | 240 kts | 252° |
| 2026-05-07 17:39 | 38.42054 | -8.91232 | 7456 ft | 239 kts | 252° |
| 2026-05-07 17:40 | 38.41652 | -8.93273 | 7210 ft | 237 kts | 252° |
| 2026-05-07 17:40 | 38.41248 | -8.95310 | 7020 ft | 234 kts | 252° |
| 2026-05-07 17:40 | 38.40853 | -8.97303 | 6977 ft | 232 kts | 252° |
| 2026-05-07 17:40 | 38.40447 | -8.99313 | 6931 ft | 233 kts | 248° |
| 2026-05-07 17:41 | 38.39699 | -9.01126 | 6936 ft | 232 kts | 231° |
| 2026-05-07 17:41 | 38.38751 | -9.02812 | 6934 ft | 234 kts | 232° |
| 2026-05-07 17:41 | 38.37919 | -9.04547 | 6913 ft | 231 kts | 245° |
| 2026-05-07 17:41 | 38.37747 | -9.06602 | 6933 ft | 243 kts | 277° |
| 2026-05-07 17:42 | 38.38461 | -9.08598 | 6931 ft | 255 kts | 306° |
| 2026-05-07 17:42 | 38.39778 | -9.10078 | 6941 ft | 252 kts | 323° |
| 2026-05-07 17:42 | 38.41293 | -9.11187 | 6871 ft | 250 kts | 328° |
| 2026-05-07 17:42 | 38.42799 | -9.12205 | 6510 ft | 239 kts | 329° |
| 2026-05-07 17:43 | 38.44220 | -9.13161 | 6244 ft | 222 kts | 328° |
| 2026-05-07 17:43 | 38.45540 | -9.14058 | 6117 ft | 209 kts | 329° |
| 2026-05-07 17:43 | 38.46801 | -9.14926 | 5837 ft | 204 kts | 327° |
| 2026-05-07 17:43 | 38.48019 | -9.15771 | 5601 ft | 199 kts | 327° |
| 2026-05-07 17:44 | 38.49227 | -9.16614 | 5381 ft | 195 kts | 327° |
| 2026-05-07 17:44 | 38.50401 | -9.17437 | 5214 ft | 191 kts | 326° |
| 2026-05-07 17:44 | 38.51564 | -9.18257 | 5020 ft | 190 kts | 327° |
| 2026-05-07 17:44 | 38.52715 | -9.19068 | 4849 ft | 188 kts | 328° |
| 2026-05-07 17:45 | 38.53861 | -9.19878 | 4663 ft | 187 kts | 328° |
| 2026-05-07 17:45 | 38.54996 | -9.20680 | 4492 ft | 186 kts | 327° |
| 2026-05-07 17:45 | 38.56128 | -9.21482 | 4302 ft | 185 kts | 328° |
| 2026-05-07 17:45 | 38.57232 | -9.22261 | 4154 ft | 182 kts | 326° |
| 2026-05-07 17:46 | 38.58339 | -9.23019 | 4058 ft | 181 kts | 334° |
| 2026-05-07 17:46 | 38.59609 | -9.23099 | 3967 ft | 193 kts | 10° |
| 2026-05-07 17:46 | 38.60914 | -9.22607 | 3716 ft | 197 kts | 13° |
| 2026-05-07 17:46 | 38.62212 | -9.22054 | 3446 ft | 195 kts | 16° |
| 2026-05-07 17:47 | 38.63462 | -9.21422 | 3193 ft | 191 kts | 18° |
| 2026-05-07 17:47 | 38.64680 | -9.20775 | 2916 ft | 187 kts | 18° |
| 2026-05-07 17:47 | 38.65875 | -9.20139 | 2667 ft | 184 kts | 18° |
| 2026-05-07 17:47 | 38.67041 | -9.19514 | 2413 ft | 181 kts | 16° |
| 2026-05-07 17:48 | 38.68213 | -9.18893 | 2165 ft | 184 kts | 18° |
| 2026-05-07 17:48 | 38.69385 | -9.18267 | 1888 ft | 177 kts | 18° |
| 2026-05-07 17:48 | 38.70456 | -9.17692 | 1695 ft | 158 kts | 18° |
| 2026-05-07 17:48 | 38.71396 | -9.17190 | 1497 ft | 138 kts | 15° |
| 2026-05-07 17:49 | 38.72257 | -9.16722 | 1357 ft | 134 kts | 15° |
| 2026-05-07 17:49 | 38.73149 | -9.16256 | 1157 ft | 142 kts | 15° |
| 2026-05-07 17:49 | 38.74056 | -9.15775 | 949 ft | 139 kts | 18° |
| 2026-05-07 17:49 | 38.74935 | -9.15294 | 727 ft | 134 kts | 16° |
| 2026-05-07 17:50 | 38.75786 | -9.14843 | 589 ft | 136 kts | 17° |
| 2026-05-07 17:50 | 38.76662 | -9.14375 | 392 ft | 135 kts | 16° |
| 2026-05-07 17:50 | 38.77468 | -9.13952 | 371 ft | 110 kts | 22° |
| 2026-05-07 17:50 | 38.78055 | -9.13637 | 373 ft | 74 kts | 23° |
| 2026-05-07 17:51 | 38.78403 | -9.13449 | 371 ft | 41 kts | 22° |
| 2026-05-07 17:51 | 38.78539 | -9.13346 | 365 ft | 13 kts | 69° |
| 2026-05-07 17:51 | 38.78519 | -9.13256 | 369 ft | 8 kts | 135° |
| 2026-05-07 17:51 | 38.78475 | -9.13229 | 369 ft | 7 kts | 163° |
| 2026-05-07 17:52 | 38.78423 | -9.13221 | 369 ft | 8 kts | 181° |
| 2026-05-07 17:52 | 38.78365 | -9.13241 | 368 ft | 9 kts | 201° |
| 2026-05-07 17:52 | 38.78307 | -9.13271 | 367 ft | 9 kts | 202° |
| 2026-05-07 17:52 | 38.78249 | -9.13302 | 370 ft | 9 kts | 202° |
| 2026-05-07 17:53 | 38.78192 | -9.13332 | 367 ft | 9 kts | 202° |
| 2026-05-07 17:53 | 38.78126 | -9.13366 | 369 ft | 11 kts | 202° |
| 2026-05-07 17:53 | 38.78056 | -9.13404 | 365 ft | 13 kts | 203° |
| 2026-05-07 17:53 | 38.77952 | -9.13460 | 368 ft | 17 kts | 203° |
| 2026-05-07 17:54 | 38.77844 | -9.13519 | 366 ft | 17 kts | 203° |
| 2026-05-07 17:54 | 38.77738 | -9.13578 | 365 ft | 17 kts | 204° |
| 2026-05-07 17:54 | 38.77630 | -9.13635 | 370 ft | 17 kts | 201° |
| 2026-05-07 17:54 | 38.77521 | -9.13691 | 367 ft | 17 kts | 202° |
| 2026-05-07 17:55 | 38.77415 | -9.13748 | 365 ft | 17 kts | 203° |
| 2026-05-07 17:55 | 38.77308 | -9.13804 | 359 ft | 18 kts | 202° |
| 2026-05-07 17:55 | 38.77199 | -9.13863 | 367 ft | 14 kts | 203° |
| 2026-05-07 17:55 | 38.77111 | -9.13902 | 364 ft | 13 kts | 185° |
| 2026-05-07 17:56 | 38.77019 | -9.13879 | 361 ft | 14 kts | 168° |
| 2026-05-07 17:56 | 38.76923 | -9.13853 | 361 ft | 12 kts | 168° |
| 2026-05-07 17:56 | 38.76872 | -9.13844 | 357 ft | 5 kts | 189° |
| 2026-05-07 17:56 | 38.76850 | -9.13879 | 356 ft | 5 kts | 257° |
| 2026-05-07 17:57 | 38.76845 | -9.13914 | 360 ft | 3 kts | 258° |
| 2026-05-07 17:57 | 38.76843 | -9.13926 | 356 ft | 1 kts | 258° |
| 2026-05-07 17:57 | 38.76841 | -9.13937 | 358 ft | 1 kts | 258° |
| 2026-05-07 17:57 | 38.76841 | -9.13941 | 357 ft | 0 kts | 258° |